createdAt,value
2022-11-27T00:00:39.246Z,3.67
2022-11-27T00:03:07.271Z,3.40
2022-11-27T00:05:35.271Z,3.60
2022-11-27T00:08:03.148Z,3.57
2022-11-27T00:10:32.335Z,3.90
2022-11-27T00:13:00.197Z,4.50
2022-11-27T00:15:28.066Z,4.00
2022-11-27T00:17:55.896Z,3.87
2022-11-27T00:20:27.397Z,4.23
2022-11-27T00:22:57.520Z,4.43
2022-11-27T00:25:25.421Z,4.07
2022-11-27T00:27:54.650Z,3.70
2022-11-27T00:30:22.511Z,3.40
2022-11-27T00:32:50.453Z,3.90
2022-11-27T00:35:18.502Z,4.07
2022-11-27T00:37:46.350Z,4.10
2022-11-27T00:40:15.526Z,4.13
2022-11-27T00:42:43.368Z,4.77
2022-11-27T00:45:12.776Z,3.37
2022-11-27T00:47:40.618Z,4.73
2022-11-27T00:50:09.256Z,4.40
2022-11-27T00:52:37.091Z,4.07
2022-11-27T00:55:05.345Z,4.23
2022-11-27T00:57:33.253Z,4.63
2022-11-27T01:00:01.092Z,4.10
2022-11-27T01:02:30.392Z,3.93
2022-11-27T01:04:58.251Z,3.93
2022-11-27T01:07:27.736Z,3.73
2022-11-27T01:09:55.595Z,4.53
2022-11-27T01:12:23.481Z,4.10
2022-11-27T01:14:51.309Z,4.30
2022-11-27T01:17:19.189Z,4.63
2022-11-27T01:19:48.441Z,4.50
2022-11-27T01:22:16.298Z,4.10
2022-11-27T01:24:46.204Z,4.30
2022-11-27T01:27:14.919Z,4.23
2022-11-27T01:29:42.777Z,4.03
2022-11-27T01:32:10.650Z,3.93
2022-11-27T01:34:38.870Z,4.50
2022-11-27T01:37:08.241Z,4.97
2022-11-27T01:39:36.068Z,4.93
2022-11-27T01:42:03.961Z,4.60
2022-11-27T01:45:05.033Z,4.73
2022-11-27T01:47:40.799Z,3.73
2022-11-27T01:50:14.382Z,4.13
2022-11-27T01:52:48.588Z,5.80
2022-11-27T01:55:21.593Z,4.23
2022-11-27T01:57:52.253Z,4.07
2022-11-27T02:00:20.841Z,4.40
2022-11-27T02:02:48.812Z,4.30
2022-11-27T02:05:19.494Z,4.60
2022-11-27T02:07:49.388Z,4.90
2022-11-27T02:10:18.322Z,4.47
2022-11-27T02:12:54.513Z,4.80
2022-11-27T02:15:27.446Z,4.70
2022-11-27T02:18:04.103Z,4.47
2022-11-27T02:20:44.064Z,3.80
2022-11-27T02:23:30.344Z,4.30
2022-11-27T02:26:21.770Z,4.33
2022-11-27T02:29:04.579Z,4.80
2022-11-27T02:31:39.664Z,4.33
2022-11-27T02:34:16.822Z,3.93
2022-11-27T02:36:51.522Z,4.63
2022-11-27T02:39:24.560Z,5.03
2022-11-27T02:41:58.734Z,4.33
2022-11-27T02:44:32.609Z,4.33
2022-11-27T02:47:01.222Z,4.50
2022-11-27T02:49:29.807Z,5.23
2022-11-27T02:52:00.199Z,4.70
2022-11-27T02:54:31.110Z,4.43
2022-11-27T02:57:03.678Z,3.50
2022-11-27T02:59:34.652Z,4.40
2022-11-27T03:02:06.508Z,4.83
2022-11-27T03:04:38.954Z,4.20
2022-11-27T03:07:12.107Z,4.50
2022-11-27T03:09:43.535Z,4.77
2022-11-27T03:12:13.222Z,4.87
2022-11-27T03:14:43.872Z,4.20
2022-11-27T03:17:23.701Z,4.63
2022-11-27T03:19:57.047Z,4.57
2022-11-27T03:22:26.758Z,4.30
2022-11-27T03:24:55.238Z,4.47
2022-11-27T03:27:28.808Z,4.70
2022-11-27T03:30:00.692Z,4.40
2022-11-27T03:32:29.719Z,4.70
2022-11-27T03:34:58.301Z,4.57
2022-11-27T03:37:27.967Z,4.70
2022-11-27T03:39:56.095Z,4.27
2022-11-27T03:42:29.632Z,4.70
2022-11-27T03:45:08.991Z,5.00
2022-11-27T03:47:52.379Z,5.70
2022-11-27T03:50:34.585Z,4.33
2022-11-27T03:53:11.771Z,4.43
2022-11-27T03:55:49.338Z,4.43
2022-11-27T03:58:24.118Z,4.37
2022-11-27T04:00:54.871Z,4.33
2022-11-27T04:03:28.004Z,4.23
2022-11-27T04:05:55.955Z,4.63
2022-11-27T04:08:24.510Z,4.27
2022-11-27T04:10:52.394Z,4.43
2022-11-27T04:13:20.445Z,4.80
2022-11-27T04:15:48.393Z,4.33
2022-11-27T04:18:17.689Z,4.20
2022-11-27T04:20:45.589Z,3.97
2022-11-27T04:23:13.422Z,4.43
2022-11-27T04:25:41.253Z,4.63
2022-11-27T04:28:09.122Z,4.60
2022-11-27T04:30:37.019Z,3.73
2022-11-27T04:33:05.008Z,3.90
2022-11-27T04:35:34.217Z,5.20
2022-11-27T04:38:02.073Z,4.00
2022-11-27T04:40:29.930Z,4.53
2022-11-27T04:42:57.760Z,4.17
2022-11-27T04:45:25.635Z,4.47
2022-11-27T04:47:53.495Z,4.73
2022-11-27T04:50:21.377Z,4.50
2022-11-27T04:52:50.557Z,4.10
2022-11-27T04:55:18.640Z,4.03
2022-11-27T04:57:46.557Z,4.30
2022-11-27T05:00:15.379Z,4.60
2022-11-27T05:02:43.247Z,4.47
2022-11-27T05:05:11.361Z,3.73
2022-11-27T05:07:39.238Z,4.37
2022-11-27T05:10:09.958Z,4.30
2022-11-27T05:12:37.784Z,4.60
2022-11-27T05:15:06.843Z,4.43
2022-11-27T05:17:34.694Z,3.67
2022-11-27T05:20:02.540Z,4.50
2022-11-27T05:22:30.402Z,4.87
2022-11-27T05:24:58.238Z,4.47
2022-11-27T05:27:27.425Z,4.37
2022-11-27T05:29:55.270Z,3.70
2022-11-27T05:32:23.113Z,3.87
2022-11-27T05:34:50.953Z,3.97
2022-11-27T05:37:20.036Z,4.53
2022-11-27T05:39:48.038Z,4.20
2022-11-27T05:42:16.257Z,4.33
2022-11-27T05:44:45.464Z,4.27
2022-11-27T05:47:13.293Z,4.00
2022-11-27T05:49:41.155Z,4.53
2022-11-27T05:52:08.994Z,4.47
2022-11-27T05:54:36.860Z,4.70
2022-11-27T05:57:04.768Z,4.07
2022-11-27T05:59:32.578Z,3.43
2022-11-27T06:02:01.824Z,3.83
2022-11-27T06:04:29.689Z,3.50
2022-11-27T06:06:57.535Z,4.60
2022-11-27T06:09:25.728Z,4.67
2022-11-27T06:11:53.582Z,3.63
2022-11-27T06:14:21.451Z,4.53
2022-11-27T06:16:49.366Z,3.97
2022-11-27T06:19:18.591Z,4.33
2022-11-27T06:21:46.651Z,4.10
2022-11-27T06:24:14.541Z,4.10
2022-11-27T06:26:42.412Z,5.07
2022-11-27T06:29:10.776Z,4.20
2022-11-27T06:31:39.060Z,3.67
2022-11-27T06:34:08.052Z,4.23
2022-11-27T06:36:39.994Z,4.00
2022-11-27T06:39:08.978Z,4.00
2022-11-27T06:41:37.307Z,4.27
2022-11-27T06:44:05.851Z,4.10
2022-11-27T06:46:33.727Z,4.10
2022-11-27T06:49:02.018Z,3.97
2022-11-27T06:51:31.692Z,4.23
2022-11-27T06:54:02.492Z,4.33
2022-11-27T06:56:32.546Z,3.87
2022-11-27T06:59:01.819Z,3.93
2022-11-27T07:01:31.542Z,4.17
2022-11-27T07:03:59.833Z,3.43
2022-11-27T07:06:28.264Z,3.90
2022-11-27T07:08:56.877Z,4.10
2022-11-27T07:11:27.979Z,4.00
2022-11-27T07:13:57.796Z,4.07
2022-11-27T07:16:26.148Z,4.60
2022-11-27T07:18:55.837Z,4.60
2022-11-27T07:21:23.742Z,4.23
2022-11-27T07:23:52.030Z,4.23
2022-11-27T07:26:22.161Z,4.20
2022-11-27T07:28:51.659Z,4.40
2022-11-27T07:31:21.679Z,4.23
2022-11-27T07:33:49.823Z,4.30
2022-11-27T07:36:18.883Z,4.50
2022-11-27T07:38:47.716Z,4.90
2022-11-27T07:41:16.382Z,4.40
2022-11-27T07:43:46.099Z,4.40
2022-11-27T07:46:17.477Z,4.30
2022-11-27T07:48:45.611Z,3.87
2022-11-27T07:51:15.713Z,4.13
2022-11-27T07:53:44.091Z,4.87
2022-11-27T07:56:13.385Z,4.10
2022-11-27T07:58:41.259Z,4.40
2022-11-27T08:01:11.051Z,3.93
2022-11-27T08:03:40.853Z,4.40
2022-11-27T08:06:16.020Z,4.23
2022-11-27T08:08:43.889Z,4.07
2022-11-27T08:11:22.851Z,5.43
2022-11-27T08:13:51.546Z,4.43
2022-11-27T08:16:19.491Z,4.43
2022-11-27T08:18:48.718Z,4.20
2022-11-27T08:21:16.801Z,4.00
2022-11-27T08:23:44.736Z,4.17
2022-11-27T08:26:13.600Z,4.50
2022-11-27T08:28:42.500Z,3.70
2022-11-27T08:31:12.966Z,4.13
2022-11-27T08:33:41.430Z,3.50
2022-11-27T08:36:16.290Z,3.90
2022-11-27T08:38:45.628Z,3.97
2022-11-27T08:41:13.551Z,3.60
2022-11-27T08:43:41.514Z,3.60
2022-11-27T08:46:09.535Z,4.00
2022-11-27T08:48:37.858Z,3.67
2022-11-27T08:51:08.077Z,3.27
2022-11-27T08:53:38.286Z,3.93
2022-11-27T08:56:07.525Z,3.50
2022-11-27T08:58:35.371Z,3.97
2022-11-27T09:01:09.310Z,4.23
2022-11-27T09:03:37.343Z,4.10
2022-11-27T09:06:08.093Z,4.03
2022-11-27T09:08:37.422Z,3.97
2022-11-27T09:11:05.685Z,3.83
2022-11-27T09:13:36.768Z,3.77
2022-11-27T09:16:05.413Z,4.00
2022-11-27T09:18:33.403Z,4.20
2022-11-27T09:21:03.120Z,4.07
2022-11-27T09:23:32.073Z,3.70
2022-11-27T09:26:01.909Z,3.80
2022-11-27T09:28:31.641Z,3.43
2022-11-27T09:31:01.552Z,3.83
2022-11-27T09:33:32.065Z,3.83
2022-11-27T09:36:04.681Z,3.20
2022-11-27T09:38:33.090Z,3.43
2022-11-27T09:41:08.775Z,3.33
2022-11-27T09:43:43.000Z,4.27
2022-11-27T09:46:17.557Z,4.07
2022-11-27T09:48:49.938Z,3.63
2022-11-27T09:51:29.034Z,3.63
2022-11-27T09:54:02.835Z,3.47
2022-11-27T09:56:36.233Z,3.60
2022-11-27T09:59:13.467Z,3.73
2022-11-27T10:01:47.642Z,3.63
2022-11-27T10:04:21.180Z,3.57
2022-11-27T10:07:07.080Z,3.60
2022-11-27T10:09:46.636Z,4.17
2022-11-27T10:12:26.068Z,3.67
2022-11-27T10:15:04.672Z,3.40
2022-11-27T10:17:37.885Z,3.50
2022-11-27T10:20:19.966Z,3.50
2022-11-27T10:22:58.625Z,3.57
2022-11-27T10:25:33.369Z,3.73
2022-11-27T10:28:13.541Z,3.50
2022-11-27T10:30:48.612Z,3.30
2022-11-27T10:33:21.185Z,3.23
2022-11-27T10:35:50.260Z,3.47
2022-11-27T10:38:21.052Z,3.57
2022-11-27T10:40:54.432Z,3.50
2022-11-27T10:43:25.625Z,3.70
2022-11-27T10:45:55.836Z,2.90
2022-11-27T10:48:24.596Z,3.20
2022-11-27T10:50:52.807Z,3.30
2022-11-27T10:53:28.015Z,3.87
2022-11-27T10:56:20.833Z,3.63
2022-11-27T10:58:56.102Z,3.97
2022-11-27T11:01:25.987Z,3.67
2022-11-27T11:04:24.220Z,3.90
2022-11-27T11:06:54.879Z,3.50
2022-11-27T11:09:25.608Z,3.70
2022-11-27T11:11:53.641Z,3.50
2022-11-27T11:14:26.497Z,3.40
2022-11-27T11:16:55.725Z,3.90
2022-11-27T11:19:26.547Z,3.47
2022-11-27T11:21:54.498Z,3.93
2022-11-27T11:24:29.431Z,3.30
2022-11-27T11:27:00.041Z,3.87
2022-11-27T11:29:33.637Z,3.70
2022-11-27T11:32:09.237Z,3.50
2022-11-27T11:34:42.380Z,3.00
2022-11-27T11:37:22.227Z,3.77
2022-11-27T11:39:56.441Z,3.47
2022-11-27T11:42:27.554Z,3.70
2022-11-27T11:45:03.596Z,3.47
2022-11-27T11:47:31.949Z,3.33
2022-11-27T11:50:00.315Z,3.17
2022-11-27T11:52:42.433Z,3.60
2022-11-27T11:55:18.883Z,3.07
2022-11-27T11:58:10.246Z,3.90
2022-11-27T12:01:18.919Z,2.90
2022-11-27T12:03:52.990Z,3.13
2022-11-27T12:06:36.779Z,2.80
2022-11-27T12:09:13.607Z,3.87
2022-11-27T12:11:45.252Z,2.70
2022-11-27T12:14:25.826Z,3.20
2022-11-27T12:17:13.802Z,3.60
2022-11-27T12:20:06.314Z,2.77
2022-11-27T12:23:00.443Z,2.93
2022-11-27T12:25:33.889Z,3.50
2022-11-27T12:28:33.351Z,2.80
2022-11-27T12:31:12.339Z,2.93
2022-11-27T12:33:58.601Z,3.17
2022-11-27T12:36:48.380Z,3.43
2022-11-27T12:39:26.585Z,3.13
2022-11-27T12:42:04.095Z,3.17
2022-11-27T12:44:44.966Z,3.47
2022-11-27T12:47:19.796Z,3.70
2022-11-27T12:49:52.671Z,3.23
2022-11-27T12:52:23.433Z,2.83
2022-11-27T12:54:58.080Z,3.27
2022-11-27T12:57:35.207Z,3.00
2022-11-27T13:00:07.445Z,3.60
2022-11-27T13:02:39.587Z,3.50
2022-11-27T13:05:13.347Z,3.20
2022-11-27T13:07:47.178Z,3.03
2022-11-27T13:10:23.499Z,3.23
2022-11-27T13:12:58.378Z,3.37
2022-11-27T13:15:31.386Z,3.63
2022-11-27T13:18:18.107Z,2.80
2022-11-27T13:20:52.278Z,2.80
2022-11-27T13:23:21.014Z,3.40
2022-11-27T13:25:52.461Z,3.07
2022-11-27T13:28:25.849Z,3.17
2022-11-27T13:30:55.694Z,3.40
2022-11-27T13:33:37.214Z,3.30
2022-11-27T13:36:08.979Z,3.87
2022-11-27T13:38:41.808Z,3.17
2022-11-27T13:41:20.465Z,2.87
2022-11-27T13:43:50.292Z,2.80
2022-11-27T13:46:23.610Z,3.07
2022-11-27T13:48:53.691Z,3.20
2022-11-27T13:51:28.722Z,3.00
2022-11-27T13:54:09.369Z,3.03
2022-11-27T13:56:37.402Z,2.93
2022-11-27T13:59:15.699Z,2.60
2022-11-27T14:01:58.027Z,3.13
2022-11-27T14:04:26.109Z,2.97
2022-11-27T14:06:59.285Z,3.07
2022-11-27T14:09:36.966Z,2.83
2022-11-27T14:12:16.821Z,2.53
2022-11-27T14:14:46.282Z,3.50
2022-11-27T14:17:27.273Z,3.07
2022-11-27T14:20:05.412Z,3.10
2022-11-27T14:23:07.520Z,2.97
2022-11-27T14:25:36.205Z,2.90
2022-11-27T14:28:12.709Z,2.93
2022-11-27T14:30:42.695Z,2.97
2022-11-27T14:33:19.139Z,3.60
2022-11-27T14:35:49.856Z,2.90
2022-11-27T14:38:19.330Z,2.93
2022-11-27T14:40:47.456Z,3.57
2022-11-27T14:43:17.784Z,3.17
2022-11-27T14:45:47.746Z,3.17
2022-11-27T14:48:24.424Z,3.50
2022-11-27T14:50:54.933Z,2.63
2022-11-27T14:53:26.010Z,2.90
2022-11-27T14:55:57.157Z,3.50
2022-11-27T14:58:27.213Z,3.20
2022-11-27T15:01:00.159Z,2.90
2022-11-27T15:03:28.421Z,3.30
2022-11-27T15:05:58.780Z,2.90
2022-11-27T15:08:29.389Z,3.00
2022-11-27T15:10:59.335Z,3.10
2022-11-27T15:13:30.035Z,3.20
2022-11-27T15:16:05.089Z,2.93
2022-11-27T15:18:37.119Z,3.30
2022-11-27T15:21:11.521Z,2.80
2022-11-27T15:23:45.848Z,3.50
2022-11-27T15:26:19.948Z,2.60
2022-11-27T15:28:53.999Z,3.10
2022-11-27T15:31:25.533Z,2.90
2022-11-27T15:33:59.099Z,3.10
2022-11-27T15:36:27.579Z,2.90
2022-11-27T15:39:18.438Z,2.97
2022-11-27T15:41:55.386Z,2.87
2022-11-27T15:44:24.109Z,2.87
2022-11-27T15:46:52.605Z,3.20
2022-11-27T15:49:20.674Z,3.13
2022-11-27T15:51:48.630Z,3.03
2022-11-27T15:54:18.142Z,2.97
2022-11-27T15:56:46.917Z,2.90
2022-11-27T15:59:15.356Z,3.03
2022-11-27T16:01:43.390Z,3.40
2022-11-27T16:04:11.252Z,3.20
2022-11-27T16:06:39.499Z,3.57
2022-11-27T16:09:07.670Z,3.20
2022-11-27T16:11:36.942Z,2.60
2022-11-27T16:14:04.835Z,2.90
2022-11-27T16:16:33.195Z,3.20
2022-11-27T16:19:02.493Z,2.73
2022-11-27T16:21:30.817Z,2.90
2022-11-27T16:24:02.068Z,2.90
2022-11-27T16:26:30.584Z,3.30
2022-11-27T16:28:59.978Z,2.80
2022-11-27T16:31:28.107Z,2.97
2022-11-27T16:33:56.036Z,3.47
2022-11-27T16:36:24.235Z,2.60
2022-11-27T16:38:54.333Z,2.80
2022-11-27T16:41:23.377Z,3.37
2022-11-27T16:43:52.908Z,3.07
2022-11-27T16:46:25.941Z,2.60
2022-11-27T16:48:54.195Z,2.60
2022-11-27T16:51:24.212Z,2.60
2022-11-27T16:53:54.782Z,2.37
2022-11-27T16:56:25.273Z,2.67
2022-11-27T16:58:56.746Z,2.73
2022-11-27T17:01:31.866Z,2.70
2022-11-27T17:04:00.109Z,2.80
2022-11-27T17:06:30.394Z,2.77
2022-11-27T17:08:59.934Z,2.60
2022-11-27T17:11:29.466Z,2.33
2022-11-27T17:13:58.631Z,2.37
2022-11-27T17:16:28.437Z,2.90
2022-11-27T17:18:56.381Z,2.93
2022-11-27T17:21:26.403Z,2.80
2022-11-27T17:23:56.805Z,2.50
2022-11-27T17:26:25.823Z,3.13
2022-11-27T17:28:56.059Z,2.80
2022-11-27T17:31:26.631Z,2.87
2022-11-27T17:33:57.346Z,2.77
2022-11-27T17:36:25.537Z,2.77
2022-11-27T17:38:54.037Z,2.80
2022-11-27T17:41:22.306Z,2.80
2022-11-27T17:43:50.975Z,2.87
2022-11-27T17:46:20.824Z,2.80
2022-11-27T17:48:49.342Z,3.13
2022-11-27T17:51:18.842Z,2.60
2022-11-27T17:53:47.141Z,3.00
2022-11-27T17:56:16.682Z,2.93
2022-11-27T17:58:45.079Z,2.40
2022-11-27T18:01:18.026Z,2.90
2022-11-27T18:03:47.305Z,2.90
2022-11-27T18:06:16.904Z,2.83
2022-11-27T18:08:47.395Z,2.73
2022-11-27T18:11:17.139Z,2.90
2022-11-27T18:13:45.247Z,2.90
2022-11-27T18:16:15.099Z,2.57
2022-11-27T18:18:43.966Z,2.77
2022-11-27T18:21:18.299Z,2.47
2022-11-27T18:27:06.646Z,3.37
2022-11-27T18:29:24.541Z,2.87
2022-11-27T18:31:53.314Z,2.60
2022-11-27T18:34:21.171Z,2.87
2022-11-27T18:36:49.015Z,3.00
2022-11-27T18:39:18.209Z,2.40
2022-11-27T18:41:46.062Z,2.33
2022-11-27T18:44:13.897Z,3.00
2022-11-27T18:46:41.756Z,2.50
2022-11-27T18:49:09.858Z,2.73
2022-11-27T18:51:37.891Z,2.57
2022-11-27T18:54:06.005Z,2.70
2022-11-27T18:56:37.048Z,2.80
2022-11-27T18:59:07.251Z,3.17
2022-11-27T19:01:41.925Z,2.93
2022-11-27T19:04:11.470Z,2.97
2022-11-27T19:06:42.103Z,3.03
2022-11-27T19:09:11.454Z,2.63
2022-11-27T19:11:41.114Z,2.90
2022-11-27T19:14:09.528Z,2.87
2022-11-27T19:16:41.993Z,2.70
2022-11-27T19:19:34.604Z,2.90
2022-11-27T19:21:58.174Z,2.53
2022-11-27T19:24:26.067Z,2.87
2022-11-27T19:26:55.395Z,3.10
2022-11-27T19:29:23.304Z,2.70
2022-11-27T19:31:51.658Z,2.90
2022-11-27T19:34:19.532Z,2.70
2022-11-27T19:36:47.549Z,2.80
2022-11-27T19:39:16.470Z,2.47
2022-11-27T19:41:44.738Z,2.90
2022-11-27T19:44:15.579Z,2.57
2022-11-27T19:46:44.810Z,2.70
2022-11-27T19:49:16.494Z,2.93
2022-11-27T19:51:45.307Z,3.13
2022-11-27T19:54:14.614Z,2.80
2022-11-27T19:56:42.790Z,2.90
2022-11-27T19:59:11.113Z,3.03
2022-11-27T20:01:41.282Z,2.63
2022-11-27T20:04:11.715Z,2.73
2022-11-27T20:06:41.087Z,2.87
2022-11-27T20:09:09.442Z,2.90
2022-11-27T20:11:37.725Z,2.90
2022-11-27T20:14:06.788Z,2.73
2022-11-27T20:16:35.789Z,3.07
2022-11-27T20:19:06.614Z,2.37
2022-11-27T20:21:35.466Z,2.60
2022-11-27T20:24:03.725Z,2.80
2022-11-27T20:26:31.689Z,3.03
2022-11-27T20:28:59.836Z,3.37
2022-11-27T20:31:29.654Z,3.10
2022-11-27T20:34:00.694Z,3.10
2022-11-27T20:36:31.200Z,2.90
2022-11-27T20:39:00.970Z,3.03
2022-11-27T20:41:29.332Z,3.30
2022-11-27T20:43:59.230Z,2.70
2022-11-27T20:46:28.262Z,3.40
2022-11-27T20:48:57.355Z,3.23
2022-11-27T20:51:28.638Z,2.70
2022-11-27T20:53:59.107Z,3.23
2022-11-27T20:56:27.220Z,2.77
2022-11-27T20:58:56.070Z,3.07
2022-11-27T21:01:26.311Z,2.73
2022-11-27T21:03:56.231Z,3.30
2022-11-27T21:06:25.842Z,2.87
2022-11-27T21:08:53.850Z,2.83
2022-11-27T21:11:25.292Z,2.80
2022-11-27T21:13:55.902Z,3.07
2022-11-27T21:16:25.321Z,2.60
2022-11-27T21:18:53.931Z,2.90
2022-11-27T21:21:21.969Z,2.47
2022-11-27T21:23:49.966Z,2.80
2022-11-27T21:26:17.966Z,2.90
2022-11-27T21:28:48.228Z,2.90
2022-11-27T21:31:18.578Z,3.03
2022-11-27T21:33:47.807Z,3.23
2022-11-27T21:36:16.088Z,2.80
2022-11-27T21:38:44.358Z,3.33
2022-11-27T21:41:13.973Z,3.33
2022-11-27T21:43:42.259Z,3.30
2022-11-27T21:46:13.533Z,2.93
2022-11-27T21:48:41.761Z,3.10
2022-11-27T21:51:12.575Z,3.10
2022-11-27T21:53:41.386Z,3.57
2022-11-27T21:56:11.575Z,3.03
2022-11-27T21:58:39.491Z,3.27
2022-11-27T22:01:10.270Z,2.57
2022-11-27T22:03:42.802Z,3.30
2022-11-27T22:06:13.019Z,3.10
2022-11-27T22:08:42.099Z,3.17
2022-11-27T22:11:12.959Z,2.63
2022-11-27T22:13:41.995Z,3.30
2022-11-27T22:16:11.506Z,2.47
2022-11-27T22:18:40.880Z,2.63
2022-11-27T22:21:10.307Z,3.27
2022-11-27T22:23:38.900Z,2.80
2022-11-27T22:26:09.250Z,2.60
2022-11-27T22:28:38.139Z,3.20
2022-11-27T22:31:10.070Z,3.30
2022-11-27T22:33:38.168Z,3.00
2022-11-27T22:36:15.481Z,2.90
2022-11-27T22:38:43.763Z,3.40
2022-11-27T22:41:12.582Z,3.27
2022-11-27T22:43:41.614Z,3.20
2022-11-27T22:46:11.268Z,3.00
2022-11-27T22:48:39.525Z,3.00
2022-11-27T22:51:07.693Z,3.37
2022-11-27T22:53:37.344Z,3.37
2022-11-27T22:56:07.160Z,3.43
2022-11-27T22:58:39.831Z,3.00
2022-11-27T23:01:10.587Z,2.67
2022-11-27T23:03:38.804Z,2.90
2022-11-27T23:06:11.523Z,2.80
2022-11-27T23:08:40.930Z,3.57
2022-11-27T23:11:09.538Z,3.07
2022-11-27T23:13:37.998Z,3.20
2022-11-27T23:16:08.236Z,3.20
2022-11-27T23:18:38.333Z,2.60
2022-11-27T23:21:06.743Z,2.90
2022-11-27T23:23:34.709Z,3.03
2022-11-27T23:26:05.498Z,2.73
2022-11-27T23:28:34.048Z,2.97
2022-11-27T23:31:22.673Z,2.60
2022-11-27T23:33:53.454Z,2.60
2022-11-27T23:36:21.372Z,2.60
2022-11-27T23:38:49.266Z,3.00
2022-11-27T23:41:20.095Z,3.50
2022-11-27T23:43:48.364Z,2.90
2022-11-27T23:46:18.237Z,2.70
2022-11-27T23:48:47.001Z,2.53
2022-11-27T23:51:16.624Z,2.77
2022-11-27T23:53:44.974Z,2.23
2022-11-27T23:56:16.766Z,2.60
2022-11-27T23:58:47.617Z,2.43
